Time;durP1;ratioP1;P1;durP2;ratioP2;P2;SDS_P1;SDS_P2;PMS_P1;PMS_P2;Temp;Humidity;BMP_temperature;BMP_pressure;BME280_temperature;BME280_humidity;BME280_pressure;Samples;Min_cycle;Max_cycle;Signal;HPM_P1;HPM_P2
2023/04/08 05:52:32;;;;;;;5.53;4.10;;;;;;;;;;10504131;28;20410;-81
2023/04/08 05:57:33;;;;;;;4.95;3.90;;;;;;;;;;10501984;28;20043;-82
2023/04/08 06:02:37;;;;;;;6.25;5.65;;;;;;;;;;10425542;22;20066;-81
2023/04/08 06:07:39;;;;;;;4.88;4.18;;;;;;;;;;10338891;28;20106;-81
2023/04/08 06:12:40;;;;;;;4.13;3.72;;;;;;;;;;10336875;28;20045;-81
2023/04/08 06:17:41;;;;;;;4.95;4.32;;;;;;;;;;10336818;28;20030;-81
2023/04/08 06:22:42;;;;;;;4.22;3.58;;;;;;;;;;10319694;28;20049;-81
2023/04/08 06:27:43;;;;;;;4.93;3.72;;;;;;;;;;10336964;28;20069;-81
2023/04/08 06:32:46;;;;;;;;;;;;;;;;;;10334397;28;20133;-80
2023/04/08 06:37:47;;;;;;;5.13;4.63;;;;;;;;;;10336812;28;19910;-79
2023/04/08 06:42:48;;;;;;;;;;;;;;;;;;10333443;28;20051;-80
2023/04/08 06:47:49;;;;;;;;;;;;;;;;;;10334754;28;20416;-80
2023/04/08 06:52:50;;;;;;;7.60;6.85;;;;;;;;;;10331707;28;19906;-80
2023/04/08 06:57:51;;;;;;;4.97;3.75;;;;;;;;;;10333107;28;20037;-80
2023/04/08 07:02:52;;;;;;;;;;;;;;;;;;10309677;28;20151;-82
2023/04/08 07:07:53;;;;;;;4.97;4.30;;;;;;;;;;10311720;28;19916;-85
2023/04/08 07:12:55;;;;;;;5.28;4.53;;;;;;;;;;10325364;28;20034;-82
2023/04/08 07:17:57;;;;;;;5.20;4.63;;;;;;;;;;10319898;28;20386;-81
2023/04/08 07:23:01;;;;;;;7.97;7.15;;;;;;;;;;10304833;28;20039;-82
2023/04/08 07:28:02;;;;;;;5.15;4.65;;;;;;;;;;10304170;28;20030;-82
2023/04/08 07:33:03;;;;;;;10.40;6.78;;;;;;;;;;10303026;28;20026;-81
2023/04/08 07:38:10;;;;;;;;;;;;;;;;;;10305461;28;20030;-82
2023/04/08 07:43:11;;;;;;;4.38;3.65;;;;;;;;;;10304566;28;19906;-82
2023/04/08 07:48:12;;;;;;;;;;;;;;;;;;10303122;28;20041;-81
2023/04/08 07:53:13;;;;;;;13.15;10.48;;;;;;;;;;10304826;28;19906;-81
2023/04/08 07:58:14;;;;;;;7.40;6.10;;;;;;;;;;10321775;28;20031;-80
2023/04/08 08:03:15;;;;;;;;;;;;;;;;;;10328232;28;20047;-81
2023/04/08 08:08:16;;;;;;;5.93;5.22;;;;;;;;;;10319347;28;20064;-81
2023/04/08 08:13:20;;;;;;;;;;;;;;;;;;10305815;28;20031;-82
2023/04/08 08:18:27;;;;;;;6.25;5.13;;;;;;;;;;10305712;28;20001;-82
2023/04/08 08:23:28;;;;;;;19.00;14.73;;;;;;;;;;10306762;28;20034;-81
2023/04/08 08:28:30;;;;;;;5.07;4.13;;;;;;;;;;10301877;28;20041;-82
2023/04/08 08:33:31;;;;;;;4.85;3.78;;;;;;;;;;10300432;28;20031;-82
2023/04/08 08:38:33;;;;;;;5.05;3.78;;;;;;;;;;10299338;28;20023;-81
2023/04/08 08:43:38;;;;;;;5.25;4.65;;;;;;;;;;10300133;28;20023;-81
2023/04/08 08:48:39;;;;;;;5.35;4.25;;;;;;;;;;10300649;28;20046;-82
2023/04/08 08:53:44;;;;;;;24.65;18.33;;;;;;;;;;10299330;28;20122;-80
2023/04/08 08:58:46;;;;;;;10.93;9.13;;;;;;;;;;10299585;28;20026;-81
2023/04/08 09:03:47;;;;;;;8.25;7.38;;;;;;;;;;10299119;28;20043;-83
2023/04/08 09:08:48;;;;;;;;;;;;;;;;;;10299437;28;20073;-82
2023/04/08 09:14:15;;;;;;;5.40;4.05;;;;;;;;;;10299899;28;19906;-81
2023/04/08 09:19:19;;;;;;;5.78;3.92;;;;;;;;;;10301652;28;20039;-81
2023/04/08 09:24:28;;;;;;;5.47;3.90;;;;;;;;;;10301716;28;20026;-82
2023/04/08 09:29:29;;;;;;;8.02;7.22;;;;;;;;;;10309487;28;20054;-79
2023/04/08 09:34:32;;;;;;;4.90;4.10;;;;;;;;;;10299931;28;20401;-83
2023/04/08 09:39:34;;;;;;;6.20;4.70;;;;;;;;;;10298178;28;20042;-83
2023/04/08 09:44:35;;;;;;;5.93;3.90;;;;;;;;;;10301047;28;20462;-85
2023/04/08 09:49:52;;;;;;;7.22;4.60;;;;;;;;;;10302326;28;20125;-82
2023/04/08 09:54:59;;;;;;;6.47;5.00;;;;;;;;;;10294917;28;20034;-82
2023/04/08 10:00:04;;;;;;;5.55;4.05;;;;;;;;;;10297742;28;20035;-83
2023/04/08 10:05:07;;;;;;;5.28;3.75;;;;;;;;;;10298958;28;20062;-83
2023/04/08 10:10:10;;;;;;;4.85;3.50;;;;;;;;;;10317763;28;20027;-83
2023/04/08 10:15:28;;;;;;;4.47;3.70;;;;;;;;;;10317310;28;20100;-83
2023/04/08 10:20:35;;;;;;;3.92;3.50;;;;;;;;;;10306779;28;20027;-85
2023/04/08 10:25:37;;;;;;;6.78;4.53;;;;;;;;;;10306810;28;20023;-86
2023/04/08 10:30:38;;;;;;;3.80;3.40;;;;;;;;;;10323135;28;20011;-85
2023/04/08 10:35:47;;;;;;;8.15;6.78;;;;;;;;;;10331132;28;20109;-85
2023/04/08 10:40:50;;;;;;;7.25;4.53;;;;;;;;;;10308378;28;20048;-85
2023/04/08 10:45:52;;;;;;;5.30;4.25;;;;;;;;;;10309831;28;20546;-83
2023/04/08 10:50:54;;;;;;;8.63;4.28;;;;;;;;;;10312449;28;20031;-83
2023/04/08 10:56:05;;;;;;;5.07;3.50;;;;;;;;;;10312943;28;20094;-84
2023/04/08 11:01:07;;;;;;;5.10;4.57;;;;;;;;;;10304754;28;20055;-84
2023/04/08 11:06:12;;;;;;;6.72;4.78;;;;;;;;;;10317920;28;20393;-84
2023/04/08 11:11:14;;;;;;;3.78;3.25;;;;;;;;;;10305274;28;20135;-84
2023/04/08 11:16:15;;;;;;;3.97;3.33;;;;;;;;;;10307663;28;20105;-83
2023/04/08 11:21:16;;;;;;;10.13;8.35;;;;;;;;;;10306269;28;20436;-85
2023/04/08 11:26:18;;;;;;;5.95;4.38;;;;;;;;;;10308025;28;20031;-85
2023/04/08 11:31:20;;;;;;;4.88;3.80;;;;;;;;;;10291305;28;20111;-85
2023/04/08 11:36:21;;;;;;;4.50;4.05;;;;;;;;;;10306421;28;20142;-84
2023/04/08 11:41:22;;;;;;;4.70;4.20;;;;;;;;;;10305829;28;20027;-84
2023/04/08 11:46:23;;;;;;;3.90;2.58;;;;;;;;;;10305551;28;20022;-83
2023/04/08 11:51:26;;;;;;;5.22;3.35;;;;;;;;;;10310286;28;20126;-81
2023/04/08 11:56:29;;;;;;;6.43;4.18;;;;;;;;;;10311313;28;20030;-82
2023/04/08 12:01:32;;;;;;;4.63;3.88;;;;;;;;;;10313880;28;20054;-84
2023/04/08 12:06:38;;;;;;;5.22;4.28;;;;;;;;;;10295986;28;20050;-83
2023/04/08 12:11:39;;;;;;;4.25;3.85;;;;;;;;;;10307355;28;20019;-84
2023/04/08 12:16:40;;;;;;;7.82;6.50;;;;;;;;;;10307649;28;20477;-84
2023/04/08 12:21:41;;;;;;;6.10;4.72;;;;;;;;;;10312207;28;20027;-82
2023/04/08 12:26:43;;;;;;;7.93;7.13;;;;;;;;;;10316036;28;20035;-83
2023/04/08 12:31:44;;;;;;;9.60;8.70;;;;;;;;;;10312614;28;20034;-81
2023/04/08 12:36:46;;;;;;;5.93;4.50;;;;;;;;;;10313944;28;20038;-83
2023/04/08 12:41:47;;;;;;;5.10;4.25;;;;;;;;;;10311653;28;20549;-82
2023/04/08 12:46:48;;;;;;;4.55;3.67;;;;;;;;;;10312393;28;20408;-82
2023/04/08 12:51:49;;;;;;;9.05;5.72;;;;;;;;;;10311458;28;20061;-81
2023/04/08 12:56:50;;;;;;;;;;;;;;;;;;10312076;28;20504;-82
2023/04/08 13:01:51;;;;;;;13.57;6.78;;;;;;;;;;10310541;28;19921;-82
2023/04/08 13:06:52;;;;;;;11.48;6.25;;;;;;;;;;10312342;28;20066;-83
2023/04/08 13:11:53;;;;;;;13.32;6.47;;;;;;;;;;10329281;28;20035;-82
2023/04/08 13:16:54;;;;;;;13.10;4.32;;;;;;;;;;10318589;28;20041;-82
2023/04/08 13:21:55;;;;;;;10.55;6.25;;;;;;;;;;10310346;28;20027;-83
2023/04/08 13:26:57;;;;;;;;;;;;;;;;;;10313537;28;20037;-82
2023/04/08 13:31:58;;;;;;;12.07;5.90;;;;;;;;;;10312839;28;19996;-82
2023/04/08 13:36:59;;;;;;;10.02;7.55;;;;;;;;;;10320741;28;20030;-82
2023/04/08 13:42:00;;;;;;;9.73;7.68;;;;;;;;;;10336906;28;20037;-81
2023/04/08 13:47:01;;;;;;;9.60;7.40;;;;;;;;;;10333302;28;20011;-81
2023/04/08 13:52:02;;;;;;;10.45;4.25;;;;;;;;;;10315237;28;20176;-81
2023/04/08 13:57:03;;;;;;;;;;;;;;;;;;10305881;28;20130;-82
2023/04/08 14:02:04;;;;;;;7.72;4.93;;;;;;;;;;10306858;28;19914;-82
2023/04/08 14:07:05;;;;;;;7.68;4.90;;;;;;;;;;10304535;28;20035;-82
2023/04/08 14:12:07;;;;;;;5.55;4.95;;;;;;;;;;10309872;28;20030;-82
2023/04/08 14:17:08;;;;;;;7.47;5.78;;;;;;;;;;10312366;28;20102;-83
2023/04/08 14:22:09;;;;;;;;;;;;;;;;;;10331423;28;20031;-81
2023/04/08 14:27:10;;;;;;;;;;;;;;;;;;10317519;28;19953;-82
2023/04/08 14:32:12;;;;;;;7.53;5.57;;;;;;;;;;10312214;28;19952;-82
2023/04/08 14:37:13;;;;;;;24.23;18.58;;;;;;;;;;10312004;28;20105;-81
2023/04/08 14:42:17;;;;;;;8.00;6.45;;;;;;;;;;10313489;28;20058;-81
2023/04/08 14:47:18;;;;;;;9.00;8.07;;;;;;;;;;10312939;28;20023;-81
2023/04/08 14:52:19;;;;;;;;;;;;;;;;;;10311665;28;20033;-81
2023/04/08 14:57:20;;;;;;;6.72;5.47;;;;;;;;;;10313407;28;19906;-81
2023/04/08 15:02:21;;;;;;;11.43;9.82;;;;;;;;;;10313763;28;20101;-82
2023/04/08 15:07:22;;;;;;;;;;;;;;;;;;10310256;28;20477;-82
2023/04/08 15:12:23;;;;;;;;;;;;;;;;;;10306977;28;19906;-82
2023/04/08 15:17:27;;;;;;;7.45;6.70;;;;;;;;;;10309309;28;19906;-82
2023/04/08 15:22:28;;;;;;;6.65;5.95;;;;;;;;;;10307794;28;20042;-82
2023/04/08 15:27:29;;;;;;;6.93;5.47;;;;;;;;;;10308351;28;20118;-83
2023/04/08 15:32:31;;;;;;;5.97;4.68;;;;;;;;;;10307559;28;20433;-83
2023/04/08 15:37:33;;;;;;;6.15;5.10;;;;;;;;;;10328220;28;20037;-81
2023/04/08 15:42:36;;;;;;;5.68;4.65;;;;;;;;;;10316377;28;20571;-83
2023/04/08 15:47:37;;;;;;;5.35;4.85;;;;;;;;;;10307214;28;20018;-82
2023/04/08 15:52:38;;;;;;;4.75;4.25;;;;;;;;;;10306386;28;20023;-83
2023/04/08 15:57:40;;;;;;;7.80;7.00;;;;;;;;;;10309807;28;20041;-83
2023/04/08 16:02:41;;;;;;;7.40;5.43;;;;;;;;;;10310333;28;20035;-83
2023/04/08 16:07:42;;;;;;;6.80;5.35;;;;;;;;;;10310828;28;20030;-83
2023/04/08 16:12:43;;;;;;;9.00;4.65;;;;;;;;;;10309137;28;20057;-83
2023/04/08 16:17:49;;;;;;;6.82;5.93;;;;;;;;;;10311976;28;20027;-83
2023/04/08 16:22:50;;;;;;;9.20;7.78;;;;;;;;;;10308793;28;20031;-83
2023/04/08 16:27:51;;;;;;;9.70;8.73;;;;;;;;;;10305994;28;20054;-83
2023/04/08 16:32:52;;;;;;;9.15;7.07;;;;;;;;;;10303546;28;20030;-83
2023/04/08 16:37:54;;;;;;;6.65;5.00;;;;;;;;;;10307811;28;20445;-83
2023/04/08 16:42:55;;;;;;;5.20;4.70;;;;;;;;;;10314715;28;20019;-82
2023/04/08 16:47:56;;;;;;;6.15;4.47;;;;;;;;;;10330703;28;20512;-82
2023/04/08 16:52:57;;;;;;;11.68;10.48;;;;;;;;;;10305364;28;20133;-82
2023/04/08 16:58:05;;;;;;;9.70;7.75;;;;;;;;;;10307513;28;20058;-83
2023/04/08 17:03:06;;;;;;;11.15;9.85;;;;;;;;;;10306441;28;20035;-83
2023/04/08 17:08:07;;;;;;;6.55;5.68;;;;;;;;;;10305216;28;20030;-83
2023/04/08 17:13:09;;;;;;;6.47;5.35;;;;;;;;;;10304677;28;20033;-83
2023/04/08 17:18:10;;;;;;;17.05;14.05;;;;;;;;;;10307350;28;20389;-83
2023/04/08 17:23:12;;;;;;;9.63;6.97;;;;;;;;;;10304395;28;20029;-83
2023/04/08 17:28:14;;;;;;;6.40;5.40;;;;;;;;;;10307635;28;20030;-83
2023/04/08 17:33:15;;;;;;;9.65;8.30;;;;;;;;;;10305450;28;20022;-84
2023/04/08 17:38:16;;;;;;;11.82;10.13;;;;;;;;;;10305660;28;20034;-83
2023/04/08 17:43:17;;;;;;;11.20;9.63;;;;;;;;;;10304722;28;20098;-84
2023/04/08 17:48:18;;;;;;;9.25;8.18;;;;;;;;;;10307248;28;20113;-84
2023/04/08 17:53:19;;;;;;;15.65;13.45;;;;;;;;;;10306046;28;20401;-83
2023/04/08 17:58:21;;;;;;;10.43;9.15;;;;;;;;;;10310435;28;20034;-82
2023/04/08 18:03:22;;;;;;;7.68;6.90;;;;;;;;;;10330578;28;20038;-80
2023/04/08 18:08:23;;;;;;;19.67;17.13;;;;;;;;;;10304852;28;20030;-82
2023/04/08 18:13:24;;;;;;;10.95;9.18;;;;;;;;;;10301048;28;20026;-82
2023/04/08 18:18:25;;;;;;;9.75;8.10;;;;;;;;;;10303824;28;20109;-82
2023/04/08 18:23:26;;;;;;;;;;;;;;;;;;10303746;28;20023;-83
2023/04/08 18:28:27;;;;;;;11.98;10.40;;;;;;;;;;10309063;28;19925;-83
2023/04/08 18:33:28;;;;;;;10.55;8.88;;;;;;;;;;10306930;28;20031;-83
2023/04/08 18:38:29;;;;;;;16.42;13.65;;;;;;;;;;10305016;28;20026;-82
2023/04/08 18:43:30;;;;;;;;;;;;;;;;;;10305639;28;20454;-82
2023/04/08 18:48:32;;;;;;;;;;;;;;;;;;10304787;28;19906;-82
2023/04/08 18:53:33;;;;;;;9.98;8.52;;;;;;;;;;10303476;28;19906;-82
2023/04/08 18:58:35;;;;;;;17.77;14.45;;;;;;;;;;10308044;28;20034;-82
2023/04/08 19:03:37;;;;;;;7.60;6.40;;;;;;;;;;10311062;28;20063;-83
2023/04/08 19:08:39;;;;;;;14.82;11.85;;;;;;;;;;10321211;28;20033;-82
2023/04/08 19:13:40;;;;;;;13.43;11.05;;;;;;;;;;10331775;28;20031;-81
